Zeng, Wen-Bo
ChinaManBorn 19842011 – 2026Runner id 579570
Events
37
2011 – 2026
Best pace
14.667
km/h · 2025
Best finish
1st
of 420 · 2025
Distance raced
2,938
km · splits not double-counted
Pace over time
km/h · higher is faster
Pace over time: 37 races from 2011 to 2026, ranging from 5.21 to 15.13 kilometres per hour, where higher is faster. A second, age-graded series is drawn above it; the gap between the two is the age credit.
- Actual pace
- Age-graded pace
Results
| Date | Event | Distance | Result | Pace km/h | Placing |
|---|---|---|---|---|---|
| 2011-05-07 | 50km | 7:39:08 h | 6.534 | 152/317 | |
| 2015-11-28 | 45km | 3:26:52 h | 13.052 | 6/244 | |
| 2016-02-28 | 50km | 4:11:01 h | 11.951 | 4/82 | |
| 2016-07-23 | 100km | 12:13:03 h | 8.185 | 11/154 | |
| 2016-11-13 | Nature Run - XiangxiChina | 50km | 4:29:47 h | 11.120 | 2/93 |
| 2017-04-16 | 68km | 8:13:32 h | 8.267 | 1/97 | |
| 2020-08-28 | 100km | 13:11:37 h | 7.579 | 6/97 | |
| 2020-09-19 | 100km | 11:38:47 h | 8.586 | 5/164 | |
| 2021-05-22 | 55km | 5:46:51 h | 9.514 | 2/266 | |
| 2023-06-04 | 60km | 8:21:52 h | 7.173 | 1/50 | |
| 2023-10-20 | 100km | 15:47:04 h | 6.335 | 26/304 | |
| 2023-10-28 | 115km | 20:13:44 h | 5.685 | 71/432 | |
| 2024-03-31 | 70km | 7:38:09 h | 9.167 | 20/465 | |
| 2024-06-02 | 50km | 5:06:07 h | 9.800 | 2/155 | |
| 2024-09-28 | 60km | 7:33:09 h | 7.944 | 5/130 | |
| 2024-10-20 | 60km | 6:04:32 h | 9.876 | 2/31 | |
| 2024-12-14 | 58.4km | 5:19:15 h | 10.976 | 1/240 | |
| 2025-01-06 | 6h | 88.000 km | 14.667 | 1/5 | |
| 2025-03-23 | 70km | 8:16:08 h | 8.465 | 7/561 | |
| 2025-04-12 | 100km | 11:58:29 h | 8.351 | 3/94 | |
| 2025-05-18 | 60km | 6:19:43 h | 9.481 | 1/43 | |
| 2025-06-01 | 50km | 9:35:44 h | 5.211 | 2/105 | |
| 2025-06-28 | 88km | 8:52:27 h | 9.916 | 1/66 | |
| 2025-07-26 | 80km | 8:42:47 h | 9.182 | 4/115 | |
| 2025-08-15 | 50km | 5:25:52 h | 9.206 | 9/78 | |
| 2025-09-13 | 100km | 14:19:19 h | 6.982 | 3/119 | |
| 2025-09-20 | 95km | 7:47:54 h | 12.182 | 4/240 | |
| 2025-09-28 | Chiangmai 12 Hr Challenge DayThailand | 12h | 117.383 km | 9.782 | 1/2 |
| 2025-10-25 | 110km | 16:15:45 h | 6.764 | 8/279 | |
| 2025-11-01 | 105km | 13:26:16 h | 7.814 | 10/1031 | |
| 2025-11-23 | Shaoshan 100 TrailChina | 50km | 5:08:23 h | 9.728 | 1/420 |
| 2025-12-27 | 99.6km | 16:25:15 h | 6.065 | 22/351 | |
| 2026-01-01 | Xishuangbanna 100kmChina | 100km | 15:38:46 h | 6.391 | 29/192 |
| 2026-01-31 | 50km | 4:26:24 h | 11.261 | 1/279 | |
| 2026-02-28 | 100km | 7:34:15 h | 13.209 | 1/1 | |
| 2026-03-14 | 12h | 153.642 km | 12.804 | 1/39 | |
| 2026-03-22 | 80km | 9:11:09 h | 8.709 | 13/350 |